Time;durP1;ratioP1;P1;durP2;ratioP2;P2;SDS_P1;SDS_P2;PMS_P1;PMS_P2;Temp;Humidity;BMP_temperature;BMP_pressure;BME280_temperature;BME280_humidity;BME280_pressure;Samples;Min_cycle;Max_cycle;Signal;HPM_P1;HPM_P2
2021/06/12 00:01:31;;;;;;;8.23;3.60;;;;;;;22.16;52.31;100971.50;146705;577;47010;-66
2021/06/12 00:04:02;;;;;;;6.65;4.00;;;;;;;22.13;52.28;100969.91;146708;608;46018;-66
2021/06/12 00:06:32;;;;;;;11.50;4.10;;;;;;;22.11;52.40;100961.12;146705;659;46017;-66
2021/06/12 00:09:05;;;;;;;5.60;3.42;;;;;;;22.09;52.48;100967.53;146708;610;46008;-66
2021/06/12 00:11:36;;;;;;;6.32;3.87;;;;;;;22.06;52.42;100979.34;146705;582;46010;-66
2021/06/12 00:14:07;;;;;;;5.70;3.67;;;;;;;22.03;52.69;100968.84;146701;689;46018;-66
2021/06/12 00:16:37;;;;;;;4.82;3.58;;;;;;;21.90;52.35;100958.19;146706;704;46018;-67
2021/06/12 00:19:08;;;;;;;5.82;3.60;;;;;;;21.96;52.70;100970.28;146709;585;46008;-67
2021/06/12 00:21:39;;;;;;;5.28;3.53;;;;;;;21.96;52.58;100975.63;146707;576;46017;-66
2021/06/12 00:24:10;;;;;;;5.65;3.85;;;;;;;21.94;52.65;100975.72;146710;565;46008;-66
2021/06/12 00:26:41;;;;;;;6.93;3.30;;;;;;;21.95;52.75;100979.25;146706;579;46016;-66
2021/06/12 00:29:12;;;;;;;6.15;3.72;;;;;;;21.94;52.35;100972.22;146712;582;46008;-67
2021/06/12 00:31:42;;;;;;;7.72;3.92;;;;;;;21.91;52.81;100975.97;146708;617;46010;-67
2021/06/12 00:34:13;;;;;;;7.10;3.55;;;;;;;21.91;52.68;100977.75;146709;589;46018;-68
2021/06/12 00:36:44;;;;;;;6.55;3.70;;;;;;;21.90;52.73;100976.06;146704;571;46019;-67
2021/06/12 00:39:14;;;;;;;5.68;3.25;;;;;;;21.90;52.98;100971.56;146705;601;46008;-66
2021/06/12 00:41:46;;;;;;;5.15;3.50;;;;;;;21.91;53.03;100973.28;146709;603;46010;-66
2021/06/12 00:44:17;;;;;;;5.10;3.17;;;;;;;21.92;53.20;100984.81;146712;564;46008;-67
2021/06/12 00:46:48;;;;;;;5.45;3.40;;;;;;;21.93;53.41;100986.53;146704;577;47021;-67
2021/06/12 00:49:20;;;;;;;6.07;3.60;;;;;;;21.91;53.31;100981.31;146710;646;46008;-66
2021/06/12 00:51:50;;;;;;;7.18;3.33;;;;;;;21.91;53.29;100994.66;146707;670;46019;-67
2021/06/12 00:54:21;;;;;;;7.82;4.00;;;;;;;21.87;53.90;100978.94;146707;586;46018;-67
2021/06/12 00:56:52;;;;;;;4.97;3.20;;;;;;;21.90;53.75;100981.41;146708;576;46010;-67
2021/06/12 00:59:22;;;;;;;6.97;3.65;;;;;;;21.84;53.62;100963.97;146707;627;46008;-67
2021/06/12 01:01:53;;;;;;;5.03;3.40;;;;;;;21.85;53.90;100981.72;146706;608;46010;-67
2021/06/12 01:04:24;;;;;;;4.75;3.30;;;;;;;21.84;54.27;100981.84;146705;603;46008;-67
2021/06/12 01:06:54;;;;;;;5.68;3.47;;;;;;;21.83;53.85;100983.66;146704;685;46019;-67
2021/06/12 01:09:25;;;;;;;6.20;3.58;;;;;;;21.86;53.79;100985.28;146711;585;46008;-67
2021/06/12 01:12:25;;;;;;;6.22;3.55;;;;;;;21.82;53.88;100975.78;146707;572;46020;-67
2021/06/12 01:15:04;;;;;;;6.50;3.42;;;;;;;21.77;53.91;100971.59;146706;585;46019;-67
2021/06/12 01:17:56;;;;;;;5.22;3.55;;;;;;;21.67;54.00;100964.34;146698;616;46018;-68
2021/06/12 01:21:28;;;;;;;8.02;3.45;;;;;;;21.68;54.02;100966.91;146704;618;47008;-67
2021/06/12 01:24:59;;;;;;;5.37;3.45;;;;;;;21.67;53.96;100967.88;146703;623;47021;-68
2021/06/12 01:28:36;;;;;;;6.37;3.47;;;;;;;21.59;53.66;100964.88;146703;566;46020;-69
2021/06/12 01:31:07;;;;;;;5.57;3.50;;;;;;;21.56;54.14;100962.44;146702;578;46010;-69
2021/06/12 01:33:41;;;;;;;4.90;3.17;;;;;;;21.50;54.10;100962.81;146705;618;45018;-68
2021/06/12 01:36:14;;;;;;;6.28;3.50;;;;;;;21.36;53.98;100951.28;146700;625;46018;-68
2021/06/12 01:38:50;;;;;;;8.20;3.67;;;;;;;21.34;54.55;100953.22;146705;589;46008;-69
2021/06/12 01:41:22;;;;;;;7.95;3.72;;;;;;;21.32;54.53;100955.13;146700;658;46018;-66
2021/06/12 01:43:56;;;;;;;4.55;3.40;;;;;;;21.24;54.27;100962.81;146706;659;46019;-69
2021/06/12 01:46:29;;;;;;;7.57;3.55;;;;;;;21.18;54.47;100965.91;146700;621;46902;-69
2021/06/12 01:49:03;;;;;;;6.18;3.80;;;;;;;21.15;54.60;100966.13;146693;577;46008;-68
2021/06/12 01:51:36;;;;;;;7.30;3.70;;;;;;;21.04;54.85;100962.37;146689;601;46017;-68
2021/06/12 01:54:07;;;;;;;8.90;4.05;;;;;;;21.00;54.65;100965.38;146694;563;46018;-68
2021/06/12 01:56:40;;;;;;;8.32;3.72;;;;;;;20.92;54.81;100974.72;146687;618;48022;-67
2021/06/12 01:59:12;;;;;;;7.20;3.57;;;;;;;20.90;54.81;100971.31;146694;620;46019;-66
2021/06/12 02:01:48;;;;;;;9.02;3.87;;;;;;;20.88;55.35;100977.72;146689;592;46018;-67
2021/06/12 02:04:19;;;;;;;5.85;3.65;;;;;;;20.88;55.17;100975.06;146693;576;46010;-67
2021/06/12 02:06:52;;;;;;;6.45;3.72;;;;;;;20.86;55.03;100980.50;146687;598;47022;-67
2021/06/12 02:09:23;;;;;;;6.40;3.80;;;;;;;20.87;55.31;100971.53;146692;599;46018;-67
2021/06/12 02:11:54;;;;;;;5.60;3.85;;;;;;;20.88;54.97;100980.38;146686;570;47020;-67
2021/06/12 02:14:26;;;;;;;7.40;3.92;;;;;;;20.84;55.19;100981.56;146698;577;46019;-67
2021/06/12 02:16:58;;;;;;;6.50;3.97;;;;;;;20.79;55.40;100973.88;146694;661;46016;-66
2021/06/12 02:19:28;;;;;;;6.00;4.00;;;;;;;20.72;55.34;100976.09;146695;602;47010;-67
2021/06/12 02:22:00;;;;;;;6.30;3.95;;;;;;;20.72;55.25;100973.41;146697;569;46010;-67
2021/06/12 02:24:30;;;;;;;5.32;3.90;;;;;;;20.73;55.33;100974.25;146694;586;46018;-66
2021/06/12 02:27:01;;;;;;;5.87;4.00;;;;;;;20.73;55.31;100974.25;146693;565;46018;-66
2021/06/12 02:29:34;;;;;;;7.35;4.22;;;;;;;20.71;55.28;100971.69;146698;590;46018;-66
2021/06/12 02:32:10;;;;;;;6.45;4.10;;;;;;;20.64;55.48;100965.03;146693;651;46018;-68
2021/06/12 02:34:41;;;;;;;6.47;4.25;;;;;;;20.63;55.54;100964.16;146699;588;46008;-68
2021/06/12 02:37:12;;;;;;;5.93;4.05;;;;;;;20.56;55.56;100970.03;146693;590;47011;-68
2021/06/12 02:39:42;;;;;;;5.28;4.00;;;;;;;20.51;55.54;100962.31;146697;566;46018;-68
2021/06/12 02:42:13;;;;;;;9.88;4.15;;;;;;;20.49;55.80;100966.03;146694;623;47010;-66
2021/06/12 02:44:44;;;;;;;5.80;4.00;;;;;;;20.48;55.82;100969.69;146699;631;46008;-67
2021/06/12 02:47:16;;;;;;;6.20;3.72;;;;;;;20.45;55.66;100976.91;146694;587;46010;-66
2021/06/12 02:49:49;;;;;;;8.38;4.05;;;;;;;20.42;55.77;100974.44;146696;579;45024;-66
2021/06/12 02:52:28;;;;;;;6.30;4.10;;;;;;;20.40;55.83;100972.84;146694;604;46019;-66
2021/06/12 02:55:05;;;;;;;7.72;4.05;;;;;;;20.37;55.80;100979.22;146694;572;46018;-67
2021/06/12 02:57:42;;;;;;;7.05;4.20;;;;;;;20.38;55.99;100986.28;146695;664;46010;-67
2021/06/12 03:00:16;;;;;;;7.35;4.20;;;;;;;20.37;56.02;100987.22;146697;585;46018;-67
2021/06/12 03:02:48;;;;;;;7.87;4.35;;;;;;;20.34;55.87;100983.88;146695;596;46010;-67
2021/06/12 03:05:25;;;;;;;7.50;4.40;;;;;;;20.35;55.95;100986.44;146696;585;46019;-68
2021/06/12 03:07:59;;;;;;;8.85;4.45;;;;;;;20.36;56.13;100987.31;146696;573;46019;-67
2021/06/12 03:10:31;;;;;;;;;;;;;;;20.34;55.70;100979.44;146700;972;46018;-67
2021/06/12 03:13:06;;;;;;;9.30;4.75;;;;;;;20.33;56.20;100982.19;146700;566;46012;-67
2021/06/12 03:15:38;;;;;;;7.75;4.53;;;;;;;20.32;56.02;100980.47;146695;604;46010;-67
2021/06/12 03:18:08;;;;;;;9.02;4.40;;;;;;;20.31;56.14;100976.09;146695;603;46018;-66
2021/06/12 03:20:41;;;;;;;8.57;4.40;;;;;;;20.29;56.52;100981.53;146696;606;46019;-66
2021/06/12 03:23:14;;;;;;;10.38;4.80;;;;;;;20.25;56.24;100974.69;146694;581;46012;-66
2021/06/12 03:25:46;;;;;;;7.18;4.80;;;;;;;20.19;56.54;100980.41;146696;738;47010;-67
2021/06/12 03:28:16;;;;;;;7.07;4.82;;;;;;;20.24;56.68;100979.19;146696;576;46012;-66
2021/06/12 03:30:48;;;;;;;10.13;4.70;;;;;;;20.24;56.44;100986.28;146694;602;46018;-66
2021/06/12 03:33:20;;;;;;;7.45;4.30;;;;;;;20.23;56.64;100990.78;146695;602;46012;-66
2021/06/12 03:35:53;;;;;;;9.82;4.60;;;;;;;20.25;56.77;100988.84;146696;570;46011;-65
2021/06/12 03:38:25;;;;;;;12.18;4.80;;;;;;;20.29;56.59;100995.69;146697;583;46012;-65
2021/06/12 03:40:57;;;;;;;8.68;4.40;;;;;;;20.34;56.77;100998.09;146690;613;47012;-65
2021/06/12 03:43:28;;;;;;;8.75;4.30;;;;;;;20.36;56.74;101001.50;146692;581;47020;-66
2021/06/12 03:46:01;;;;;;;10.10;4.30;;;;;;;20.36;56.55;100992.66;146698;652;46010;-65
2021/06/12 03:48:32;;;;;;;6.80;4.25;;;;;;;20.34;56.68;100999.87;146697;581;46012;-66
2021/06/12 03:51:03;;;;;;;7.15;4.10;;;;;;;20.31;56.99;101005.44;146695;576;46019;-66
2021/06/12 03:53:47;;;;;;;6.50;4.07;;;;;;;20.28;56.71;101002.03;146694;569;46018;-67
2021/06/12 03:56:23;;;;;;;8.10;3.92;;;;;;;20.28;56.83;101004.69;146697;615;46018;-65
2021/06/12 03:58:54;;;;;;;8.43;3.97;;;;;;;20.33;56.80;101004.38;146697;589;46016;-66
2021/06/12 04:01:24;;;;;;;5.97;4.10;;;;;;;20.30;57.11;101004.56;146698;672;47010;-66
2021/06/12 04:03:55;;;;;;;10.98;4.53;;;;;;;20.33;57.03;101007.03;146696;600;46016;-66
2021/06/12 04:06:25;;;;;;;11.23;4.53;;;;;;;20.41;57.04;101007.41;146695;581;46018;-66
2021/06/12 04:08:56;;;;;;;9.63;4.60;;;;;;;20.44;57.17;101012.53;146695;604;46016;-65
2021/06/12 04:11:27;;;;;;;7.43;4.25;;;;;;;20.52;57.45;101024.53;146696;568;46018;-65
2021/06/12 04:14:00;;;;;;;9.68;4.20;;;;;;;20.67;57.21;101014.62;146697;593;46013;-65
2021/06/12 04:16:31;;;;;;;9.75;4.22;;;;;;;20.79;57.18;101025.41;146699;606;46018;-65
2021/06/12 04:19:02;;;;;;;11.02;3.97;;;;;;;20.78;57.36;101026.34;146694;688;46018;-65
2021/06/12 04:21:32;;;;;;;10.77;4.35;;;;;;;20.85;57.36;101031.31;146699;578;46010;-65
2021/06/12 04:24:04;;;;;;;6.53;3.92;;;;;;;21.01;56.96;101037.31;146697;569;47012;-65
2021/06/12 04:26:36;;;;;;;7.23;4.23;;;;;;;21.08;56.94;101022.59;146698;571;46011;-66
2021/06/12 04:29:06;;;;;;;14.80;4.72;;;;;;;21.21;57.11;101027.09;146696;593;46016;-66
2021/06/12 04:31:37;;;;;;;11.50;5.45;;;;;;;21.36;56.41;101026.06;146696;577;46018;-65
2021/06/12 04:34:08;;;;;;;8.18;5.22;;;;;;;21.35;56.63;101012.81;146696;594;46017;-66
2021/06/12 04:36:38;;;;;;;10.15;5.35;;;;;;;21.46;56.62;101027.16;146700;569;46010;-65
2021/06/12 04:39:09;;;;;;;10.40;5.00;;;;;;;21.60;56.62;101028.88;146695;593;46018;-67
2021/06/12 04:41:40;;;;;;;7.62;5.20;;;;;;;21.72;56.37;101032.53;146695;676;46018;-67
2021/06/12 04:44:10;;;;;;;11.50;5.18;;;;;;;21.88;56.09;101029.59;146694;595;46016;-67
2021/06/12 04:46:42;;;;;;;10.05;4.80;;;;;;;22.05;55.89;101030.22;146700;657;45020;-66
2021/06/12 04:49:13;;;;;;;10.07;5.10;;;;;;;22.12;55.62;101035.03;146698;620;46020;-69
2021/06/12 04:51:43;;;;;;;9.57;5.00;;;;;;;22.21;55.43;101040.69;146697;595;46019;-68
2021/06/12 04:54:14;;;;;;;7.45;4.60;;;;;;;22.29;55.56;101025.81;146695;579;46018;-67
2021/06/12 04:56:44;;;;;;;9.90;5.10;;;;;;;22.40;55.03;101026.87;146697;659;46011;-66
2021/06/12 04:59:15;;;;;;;9.10;4.45;;;;;;;22.51;54.95;101028.75;146695;580;46023;-66
2021/06/12 05:01:45;;;;;;;9.32;5.65;;;;;;;22.59;54.96;101023.69;146700;564;45020;-66
2021/06/12 05:04:16;;;;;;;9.85;5.55;;;;;;;22.68;54.88;101020.34;146696;567;46013;-67
2021/06/12 05:06:47;;;;;;;9.10;5.10;;;;;;;22.78;54.51;101026.69;146699;585;46010;-67
2021/06/12 05:09:17;;;;;;;10.25;5.60;;;;;;;22.92;54.13;101038.19;146697;563;46012;-67
2021/06/12 05:11:48;;;;;;;8.95;5.47;;;;;;;23.01;54.04;101032.16;146700;606;45035;-68
2021/06/12 05:14:19;;;;;;;11.02;5.70;;;;;;;22.99;54.05;101034.09;146694;595;46019;-69
2021/06/12 05:16:50;;;;;;;10.13;4.90;;;;;;;23.02;54.15;101043.72;146698;623;46018;-66
2021/06/12 05:19:21;;;;;;;8.20;5.40;;;;;;;23.03;54.19;101046.28;146698;591;46012;-65
2021/06/12 05:21:52;;;;;;;9.70;5.70;;;;;;;23.03;53.95;101032.88;146695;563;47008;-66
2021/06/12 05:24:23;;;;;;;10.80;5.72;;;;;;;23.13;53.86;101047.34;146694;649;47020;-66
2021/06/12 05:26:54;;;;;;;10.70;5.80;;;;;;;23.24;53.95;101049.19;146696;581;46018;-66
2021/06/12 05:29:24;;;;;;;8.90;4.80;;;;;;;23.38;53.63;101055.31;146694;574;47012;-66
2021/06/12 05:31:55;;;;;;;7.70;4.87;;;;;;;23.46;53.19;101051.06;146698;646;46018;-66
2021/06/12 05:34:26;;;;;;;7.95;4.50;;;;;;;23.56;52.92;101053.03;146694;668;46018;-65
2021/06/12 05:36:58;;;;;;;6.00;4.10;;;;;;;23.65;52.94;101055.00;146699;611;46018;-66
2021/06/12 05:39:29;;;;;;;6.05;3.95;;;;;;;23.75;52.57;101058.66;146696;578;46012;-66
2021/06/12 05:42:00;;;;;;;5.40;3.80;;;;;;;23.88;51.35;101055.91;146699;569;46010;-66
2021/06/12 05:44:31;;;;;;;6.30;3.70;;;;;;;23.99;52.18;101049.72;146696;579;46018;-66
2021/06/12 05:47:01;;;;;;;5.93;3.42;;;;;;;24.11;51.73;101054.09;146688;593;48010;-67
2021/06/12 05:49:32;;;;;;;6.57;3.95;;;;;;;24.21;51.70;101056.00;146697;564;46017;-66
2021/06/12 05:52:03;;;;;;;6.07;3.40;;;;;;;24.30;51.52;101055.28;146699;589;46010;-66
2021/06/12 05:54:33;;;;;;;7.45;3.20;;;;;;;24.35;50.72;101050.41;146697;574;46016;-66
2021/06/12 05:57:05;;;;;;;6.47;3.50;;;;;;;24.40;50.42;101048.19;146698;560;46010;-66
2021/06/12 05:59:35;;;;;;;4.53;3.20;;;;;;;24.44;50.40;101044.28;146696;599;46012;-66
2021/06/12 06:02:06;;;;;;;6.47;3.40;;;;;;;24.50;50.41;101042.94;146698;563;46018;-69
2021/06/12 06:04:37;;;;;;;8.32;3.35;;;;;;;24.62;50.14;101043.81;146696;580;46017;-69
2021/06/12 06:07:07;;;;;;;5.37;3.40;;;;;;;24.70;50.27;101043.16;146699;606;45018;-69
2021/06/12 06:09:38;;;;;;;5.10;3.35;;;;;;;24.86;50.60;101040.03;146696;579;46018;-67
2021/06/12 06:12:09;;;;;;;5.20;3.40;;;;;;;24.93;49.88;101034.03;146699;594;46010;-67
2021/06/12 06:14:40;;;;;;;5.20;3.50;;;;;;;25.05;49.89;101028.62;146698;611;46016;-70
2021/06/12 06:17:11;;;;;;;6.12;3.50;;;;;;;25.15;49.57;101029.53;146699;588;46010;-71
2021/06/12 06:19:41;;;;;;;10.13;4.50;;;;;;;25.14;49.49;101035.91;146694;615;47010;-70
2021/06/12 06:22:12;;;;;;;6.55;4.32;;;;;;;25.18;49.57;101032.81;146699;617;46018;-70
2021/06/12 06:24:43;;;;;;;9.00;4.43;;;;;;;25.27;49.51;101030.31;146696;635;46016;-68
2021/06/12 06:27:13;;;;;;;7.35;4.45;;;;;;;25.37;49.13;101038.47;146698;594;46010;-69
2021/06/12 06:29:44;;;;;;;11.52;4.90;;;;;;;25.32;48.82;101037.00;146696;604;46012;-69
2021/06/12 06:32:15;;;;;;;8.02;4.10;;;;;;;25.37;48.90;101039.34;146699;574;46018;-68
2021/06/12 06:34:46;;;;;;;7.53;4.30;;;;;;;25.48;48.57;101043.81;146695;602;47012;-69
2021/06/12 06:37:16;;;;;;;7.85;4.68;;;;;;;25.39;48.27;101040.06;146697;604;47008;-69
2021/06/12 06:39:47;;;;;;;7.95;4.65;;;;;;;25.36;47.95;101043.00;146697;571;46016;-68
2021/06/12 06:42:18;;;;;;;6.62;4.57;;;;;;;25.29;47.66;101036.44;146700;708;46011;-67
2021/06/12 06:44:48;;;;;;;11.32;4.90;;;;;;;25.30;48.12;101038.97;146696;634;46018;-67
2021/06/12 06:47:19;;;;;;;9.65;4.50;;;;;;;25.41;48.13;101043.47;146699;700;46010;-67
2021/06/12 06:49:50;;;;;;;6.90;4.10;;;;;;;25.44;48.19;101045.06;146696;624;46013;-68
2021/06/12 06:52:21;;;;;;;6.60;4.28;;;;;;;25.59;48.06;101041.03;146697;632;46018;-67
2021/06/12 06:54:51;;;;;;;5.87;3.90;;;;;;;25.70;47.62;101041.91;146694;606;46018;-69
2021/06/12 06:57:22;;;;;;;6.85;3.42;;;;;;;25.81;47.13;101040.00;146701;662;46011;-67
2021/06/12 06:59:52;;;;;;;7.30;3.42;;;;;;;25.79;47.07;101036.63;146697;596;46012;-67
2021/06/12 07:02:23;;;;;;;4.87;3.30;;;;;;;25.83;47.28;101035.34;146695;614;46018;-68
2021/06/12 07:04:54;;;;;;;5.15;3.10;;;;;;;25.94;47.09;101026.31;146696;572;46013;-67
2021/06/12 07:07:24;;;;;;;9.73;3.40;;;;;;;25.99;46.32;101021.38;146699;565;46010;-67
2021/06/12 07:09:55;;;;;;;7.70;3.35;;;;;;;26.05;46.00;101032.63;146696;616;46018;-67
2021/06/12 07:12:26;;;;;;;5.05;3.35;;;;;;;26.14;46.22;101032.66;146699;619;46019;-67
2021/06/12 07:14:56;;;;;;;5.55;3.20;;;;;;;26.32;45.93;101029.31;146696;567;46018;-67
2021/06/12 07:17:27;;;;;;;7.60;3.40;;;;;;;26.35;45.97;101031.72;146699;630;46018;-67
2021/06/12 07:20:00;;;;;;;5.28;3.20;;;;;;;26.48;45.86;101032.31;146697;716;46012;-66
2021/06/12 07:22:31;;;;;;;5.07;2.83;;;;;;;26.60;45.24;101024.97;146698;563;47010;-67
2021/06/12 07:25:02;;;;;;;4.85;2.90;;;;;;;26.76;45.14;101024.44;146698;569;46012;-67
2021/06/12 07:27:32;;;;;;;6.18;2.90;;;;;;;26.95;44.21;101022.72;146690;778;46019;-67
2021/06/12 07:30:05;;;;;;;6.68;3.28;;;;;;;26.85;43.78;101026.28;146694;630;46018;-67
2021/06/12 07:32:36;;;;;;;9.33;3.50;;;;;;;26.71;42.82;101020.47;146697;814;46018;-67
2021/06/12 07:35:07;;;;;;;8.65;3.75;;;;;;;26.62;43.00;101019.44;146694;581;47021;-67
2021/06/12 07:37:38;;;;;;;8.60;3.83;;;;;;;26.58;43.61;101026.09;146697;570;46010;-67
2021/06/12 07:40:09;;;;;;;6.28;3.87;;;;;;;26.64;43.54;101018.31;146696;799;46013;-67
2021/06/12 07:42:40;;;;;;;6.03;3.65;;;;;;;26.57;42.12;101019.00;146699;628;46018;-67
2021/06/12 07:45:12;;;;;;;5.10;3.50;;;;;;;26.58;42.84;101020.72;146696;628;46012;-67
2021/06/12 07:47:42;;;;;;;7.68;3.53;;;;;;;26.77;42.56;101026.13;146697;644;46018;-68
2021/06/12 07:50:14;;;;;;;7.28;3.80;;;;;;;26.64;43.02;101014.75;146697;679;46019;-67
2021/06/12 07:52:44;;;;;;;6.18;3.83;;;;;;;26.89;42.38;101021.47;146697;823;46012;-67
2021/06/12 07:55:15;;;;;;;4.87;3.67;;;;;;;26.85;43.30;101018.19;146695;870;46018;-67
2021/06/12 07:57:46;;;;;;;10.23;4.97;;;;;;;27.01;43.31;101019.44;146699;820;46010;-67
2021/06/12 08:00:17;;;;;;;7.25;4.60;;;;;;;27.19;43.11;101025.00;146695;733;46012;-67
2021/06/12 08:02:48;;;;;;;6.12;4.32;;;;;;;26.99;43.60;101021.47;146699;903;46010;-67
2021/06/12 08:05:19;;;;;;;6.20;4.47;;;;;;;26.84;44.83;101016.50;146694;563;47905;-67
2021/06/12 08:07:50;;;;;;;7.30;4.60;;;;;;;26.74;45.23;101014.81;146694;576;46018;-67
2021/06/12 08:10:21;;;;;;;13.60;4.87;;;;;;;26.97;44.66;101024.31;146696;625;46013;-68
2021/06/12 08:12:52;;;;;;;6.07;4.60;;;;;;;27.04;44.95;101021.88;146697;812;46019;-67
2021/06/12 08:15:23;;;;;;;7.12;4.37;;;;;;;27.26;44.04;101031.50;146696;614;46012;-67
2021/06/12 08:17:55;;;;;;;8.80;4.18;;;;;;;27.24;42.78;101016.47;146698;599;46010;-67
2021/06/12 08:20:25;;;;;;;8.75;4.40;;;;;;;27.12;43.15;101015.75;146694;815;47904;-67
2021/06/12 08:22:56;;;;;;;9.05;4.68;;;;;;;27.18;43.32;101017.91;146698;581;46018;-67
2021/06/12 08:25:27;;;;;;;8.45;4.45;;;;;;;27.05;43.92;101012.81;146695;584;46018;-67
2021/06/12 08:28:02;;;;;;;6.57;4.32;;;;;;;27.25;43.68;101018.16;146699;569;46010;-68
2021/06/12 08:30:35;;;;;;;7.80;4.32;;;;;;;27.21;43.53;101012.22;146696;723;46012;-66
2021/06/12 08:33:07;;;;;;;7.53;4.20;;;;;;;27.39;42.59;101019.59;146699;598;46010;-67
2021/06/12 08:35:39;;;;;;;7.83;4.47;;;;;;;27.38;42.40;101007.97;146693;638;46018;-66
2021/06/12 08:38:10;;;;;;;7.05;4.28;;;;;;;27.40;42.37;101021.28;146696;565;46018;-66
2021/06/12 08:40:41;;;;;;;7.03;4.57;;;;;;;27.29;43.58;101009.63;146690;628;47020;-67
2021/06/12 08:43:11;;;;;;;7.85;4.37;;;;;;;27.45;42.57;101008.22;146694;626;46010;-66
2021/06/12 08:45:42;;;;;;;7.75;4.78;;;;;;;27.44;43.17;101007.38;146692;627;46018;-67
2021/06/12 08:48:14;;;;;;;6.32;4.40;;;;;;;27.55;43.15;101005.50;146695;606;46017;-67
2021/06/12 08:50:45;;;;;;;6.25;3.95;;;;;;;27.65;42.79;101003.59;146693;646;47905;-67
2021/06/12 08:53:17;;;;;;;9.02;4.37;;;;;;;27.64;42.38;101001.91;146697;618;46018;-67
2021/06/12 08:55:48;;;;;;;7.97;4.07;;;;;;;27.61;41.98;101002.19;146695;604;46017;-67
2021/06/12 08:58:19;;;;;;;8.50;4.47;;;;;;;27.59;42.92;100996.13;146699;605;46012;-67
2021/06/12 09:00:50;;;;;;;7.37;4.45;;;;;;;27.51;42.64;100999.53;146694;613;46018;-67
2021/06/12 09:03:25;;;;;;;9.68;4.47;;;;;;;27.65;42.46;100998.22;146697;623;45019;-67
2021/06/12 09:06:02;;;;;;;8.52;4.53;;;;;;;27.67;42.77;100990.84;146689;605;47020;-66
2021/06/12 09:08:37;;;;;;;7.55;4.93;;;;;;;27.68;43.04;100993.37;146694;593;46018;-67
2021/06/12 09:11:17;;;;;;;7.55;4.68;;;;;;;27.76;42.23;100987.25;146693;576;47020;-67
2021/06/12 09:14:01;;;;;;;6.75;4.00;;;;;;;27.61;41.18;100994.13;146693;576;47010;-66
2021/06/12 09:16:40;;;;;;;4.40;3.37;;;;;;;27.80;40.44;101007.53;146686;563;48012;-66
2021/06/12 09:19:23;;;;;;;4.18;3.25;;;;;;;27.85;39.56;100999.00;146696;564;46011;-67
2021/06/12 09:22:11;;;;;;;4.35;3.10;;;;;;;27.61;39.11;100996.81;146694;629;46012;-67
2021/06/12 09:24:49;;;;;;;5.05;3.83;;;;;;;27.60;40.93;101009.47;146697;566;46012;-67
2021/06/12 09:27:20;;;;;;;7.43;3.83;;;;;;;27.82;39.91;100994.75;146694;581;46016;-67
2021/06/12 09:29:53;;;;;;;5.70;3.22;;;;;;;27.83;40.17;100993.75;146694;591;46018;-67
2021/06/12 09:32:33;;;;;;;7.12;3.28;;;;;;;27.57;39.27;100993.56;146692;576;46012;-67
2021/06/12 09:35:09;;;;;;;5.12;3.67;;;;;;;27.46;39.29;101000.00;146694;575;46018;-66
2021/06/12 09:37:40;;;;;;;6.20;3.33;;;;;;;27.33;39.73;100999.44;146695;566;46016;-66
2021/06/12 09:40:16;;;;;;;4.05;3.10;;;;;;;27.39;39.15;100993.47;146697;576;45038;-67
2021/06/12 09:42:56;;;;;;;7.43;3.53;;;;;;;27.39;40.03;100992.63;146697;582;46012;-66
2021/06/12 09:45:32;;;;;;;8.23;3.40;;;;;;;27.23;40.70;100988.66;146695;589;46018;-67
2021/06/12 09:48:13;;;;;;;4.20;3.00;;;;;;;27.29;40.03;100987.25;146695;610;46013;-68
2021/06/12 09:50:47;;;;;;;5.82;3.20;;;;;;;27.24;39.53;100989.50;146695;636;46018;-67
2021/06/12 09:53:37;;;;;;;4.72;3.22;;;;;;;27.24;41.16;100984.12;146694;572;46012;-67
2021/06/12 09:56:12;;;;;;;3.78;2.95;;;;;;;27.24;40.82;100982.25;146693;566;46019;-69
2021/06/12 09:58:43;;;;;;;4.97;3.10;;;;;;;27.20;40.94;100980.84;146693;612;46016;-67
2021/06/12 10:01:17;;;;;;;5.53;2.87;;;;;;;27.31;39.49;100982.53;146693;635;46010;-68
2021/06/12 10:03:48;;;;;;;6.22;2.95;;;;;;;27.31;38.73;100977.16;146694;579;46013;-66
2021/06/12 10:06:23;;;;;;;4.10;2.92;;;;;;;27.14;38.94;100989.53;146696;587;46010;-68
2021/06/12 10:08:54;;;;;;;5.97;3.00;;;;;;;27.17;39.22;100984.72;146694;614;46026;-68
2021/06/12 10:11:26;;;;;;;5.20;2.90;;;;;;;27.33;38.99;100983.25;146696;585;46011;-68
2021/06/12 10:13:58;;;;;;;3.72;3.05;;;;;;;27.24;38.78;100976.88;146695;634;46012;-67
2021/06/12 10:16:31;;;;;;;;;;;;;;;27.36;39.73;100977.59;146702;981;46018;-66
2021/06/12 10:19:05;;;;;;;6.18;3.08;;;;;;;27.49;38.68;100971.91;146697;621;47011;-67
2021/06/12 10:21:36;;;;;;;4.68;3.03;;;;;;;27.61;39.19;100975.25;146696;629;46018;-68
2021/06/12 10:24:08;;;;;;;4.90;3.00;;;;;;;27.64;38.13;100959.63;146694;565;47010;-67
2021/06/12 10:26:41;;;;;;;5.28;2.80;;;;;;;27.78;38.39;100960.97;146694;582;46018;-67
2021/06/12 10:29:13;;;;;;;4.87;3.07;;;;;;;27.56;38.67;100964.03;146693;795;46020;-67
2021/06/12 10:31:45;;;;;;;6.10;3.20;;;;;;;27.63;38.46;100951.69;146700;571;45018;-70
2021/06/12 10:34:16;;;;;;;4.15;2.87;;;;;;;27.52;38.18;100950.88;146693;573;46021;-68
2021/06/12 10:37:18;;;;;;;4.55;2.80;;;;;;;27.73;36.76;100947.06;146698;583;46008;-68
2021/06/12 10:40:06;;;;;;;5.28;2.92;;;;;;;27.67;37.41;100958.47;146695;632;46017;-68
2021/06/12 10:42:39;;;;;;;5.62;2.90;;;;;;;27.73;36.85;100952.47;146696;599;46006;-69
2021/06/12 10:45:14;;;;;;;6.00;3.15;;;;;;;27.61;37.87;100959.06;146692;607;46018;-68
2021/06/12 10:47:52;;;;;;;5.37;2.83;;;;;;;27.59;37.42;100961.91;146697;621;46019;-65
2021/06/12 10:50:44;;;;;;;5.15;2.80;;;;;;;27.85;38.39;100940.47;146695;684;46902;-68
2021/06/12 10:53:33;;;;;;;4.82;2.80;;;;;;;27.92;37.59;100948.00;146694;620;46008;-68
2021/06/12 10:56:35;;;;;;;5.28;2.92;;;;;;;27.98;35.92;100956.31;146693;619;47011;-68
2021/06/12 10:59:08;;;;;;;3.67;2.70;;;;;;;28.15;36.66;100943.03;146695;591;46027;-68
2021/06/12 11:05:02;;;;;;;6.05;3.00;;;;;;;28.24;37.41;100934.03;146697;609;46018;-69
2021/06/12 11:07:45;;;;;;;5.18;2.80;;;;;;;28.35;36.48;100939.19;146695;585;46010;-68
2021/06/12 11:10:23;;;;;;;4.55;2.90;;;;;;;28.39;36.65;100923.56;146698;579;45019;-69
2021/06/12 11:12:56;;;;;;;4.30;2.70;;;;;;;28.34;35.67;100928.56;146693;579;46020;-67
2021/06/12 11:15:34;;;;;;;5.82;3.10;;;;;;;28.30;36.62;100922.59;146697;619;47008;-69
2021/06/12 11:18:23;;;;;;;5.07;3.17;;;;;;;28.31;36.55;100928.84;146693;589;46018;-69
2021/06/12 11:21:07;;;;;;;4.10;2.70;;;;;;;28.36;36.26;100916.59;146694;622;46010;-70
2021/06/12 11:23:56;;;;;;;4.53;3.20;;;;;;;28.63;36.20;100916.66;146693;591;46020;-69
2021/06/12 11:26:26;;;;;;;4.68;3.03;;;;;;;28.64;35.43;100911.13;146697;587;46008;-70
2021/06/12 11:29:14;;;;;;;5.82;2.92;;;;;;;28.58;34.39;100908.16;146695;584;46010;-69
2021/06/12 11:31:44;;;;;;;4.18;2.97;;;;;;;28.35;34.64;100903.25;146695;576;47006;-70
2021/06/12 11:34:22;;;;;;;4.75;2.92;;;;;;;28.02;35.51;100909.19;146693;701;46018;-69
2021/06/12 11:37:19;;;;;;;4.57;2.90;;;;;;;27.68;37.11;100908.91;146697;571;46018;-69
2021/06/12 11:39:56;;;;;;;3.80;2.92;;;;;;;27.64;36.98;100899.41;146693;573;46019;-68
2021/06/12 11:42:45;;;;;;;4.15;3.10;;;;;;;27.67;36.52;100893.75;146696;579;46016;-68
2021/06/12 11:45:27;;;;;;;4.40;3.00;;;;;;;27.72;35.61;100891.47;146696;590;46016;-68
2021/06/12 11:48:14;;;;;;;4.05;2.95;;;;;;;27.83;35.97;100899.34;146695;585;46018;-68
2021/06/12 11:50:47;;;;;;;4.85;2.78;;;;;;;27.85;35.97;100891.09;146696;587;46010;-68
2021/06/12 11:53:20;;;;;;;3.70;2.75;;;;;;;27.68;36.02;100890.03;146696;570;46008;-70
2021/06/12 11:55:51;;;;;;;4.78;2.95;;;;;;;27.66;36.22;100886.66;146696;563;46016;-69
2021/06/12 11:58:22;;;;;;;4.57;2.92;;;;;;;27.68;36.65;100885.50;146694;582;46018;-69